CheckWX is a tool to help pilots better visualize weather data.  It is not intended as a substitute for an official pre-flight weather briefing.

12:18:40 UTC

CYYQ METAR
Churchill Airport
Churchill, Manitoba, Canada
Current

1 hour ago

CYYQ 181100Z 30013KT 15SM SKC M31/M34 A3041 RMK SLP304
Observed
Feb-18 @ 11:00 UTC
Wind
  • 300° at 13 KTS
Visibility
15 SM
Flight Rules
VFR
Cloud Levels
  • Clear skies
Temperature
-31°C / -24°F
Dewpoint
-34°C / -29°F
Humidity
75%
Altimeter
30.41" Hg
Pressure
1030.4 hPa
Previous

2 hours ago

CYYQ 181000Z 31016G22KT 15SM DRSN SKC M30/M34 A3041 RMK SLP305
Observed
Feb-18 @ 10:00 UTC
Wind
  • 310° at 16 KTS
  • Gusting to 22 KTS
Visibility
15 SM
Flight Rules
VFR
Conditions
Low drifting Snow
Cloud Levels
  • Clear skies
Temperature
-30°C / -22°F
Dewpoint
-34°C / -29°F
Humidity
68%
Altimeter
30.41" Hg
Pressure
1030.5 hPa
Previous

3 hours ago

CYYQ 180900Z 31015G21KT 15SM DRSN SKC M30/M34 A3043 RMK SLP310
Observed
Feb-18 @ 09:00 UTC
Wind
  • 310° at 15 KTS
  • Gusting to 21 KTS
Visibility
15 SM
Flight Rules
VFR
Conditions
Low drifting Snow
Cloud Levels
  • Clear skies
Temperature
-30°C / -22°F
Dewpoint
-34°C / -29°F
Humidity
68%
Altimeter
30.43" Hg
Pressure
1031 hPa